sensor_id;sensor_type;location;lat;lon;timestamp;pressure;altitude;pressure_sealevel;temperature;humidity
45285;BME280;31026;43.780;25.948;2023-05-10T00:00:46;101489.31;;;19.03;68.92
45285;BME280;31026;43.780;25.948;2023-05-10T00:03:14;101488.56;;;19.01;69.03
45285;BME280;31026;43.780;25.948;2023-05-10T00:05:43;101496.38;;;19.04;68.98
45285;BME280;31026;43.780;25.948;2023-05-10T00:08:11;101500.06;;;19.15;68.84
45285;BME280;31026;43.780;25.948;2023-05-10T00:10:39;101500.28;;;19.12;68.80
45285;BME280;31026;43.780;25.948;2023-05-10T00:13:07;101500.06;;;19.15;68.55
45285;BME280;31026;43.780;25.948;2023-05-10T00:15:36;101498.13;;;19.17;68.36
45285;BME280;31026;43.780;25.948;2023-05-10T00:18:07;101486.88;;;19.12;68.35
45285;BME280;31026;43.780;25.948;2023-05-10T00:20:35;101492.97;;;19.14;68.48
45285;BME280;31026;43.780;25.948;2023-05-10T00:23:03;101493.44;;;19.07;68.71
45285;BME280;31026;43.780;25.948;2023-05-10T00:25:32;101489.69;;;19.10;68.58
45285;BME280;31026;43.780;25.948;2023-05-10T00:28:00;101488.34;;;19.04;68.53
45285;BME280;31026;43.780;25.948;2023-05-10T00:30:28;101488.22;;;19.06;68.54
45285;BME280;31026;43.780;25.948;2023-05-10T00:32:56;101490.03;;;19.05;68.67
45285;BME280;31026;43.780;25.948;2023-05-10T00:35:28;101500.03;;;19.03;68.62
45285;BME280;31026;43.780;25.948;2023-05-10T00:37:56;101493.94;;;19.01;68.59
45285;BME280;31026;43.780;25.948;2023-05-10T00:40:24;101505.38;;;19.03;68.49
45285;BME280;31026;43.780;25.948;2023-05-10T00:42:53;101484.94;;;19.02;68.59
45285;BME280;31026;43.780;25.948;2023-05-10T00:45:22;101483.19;;;19.01;68.49
45285;BME280;31026;43.780;25.948;2023-05-10T00:47:50;101488.56;;;19.01;68.61
45285;BME280;31026;43.780;25.948;2023-05-10T00:50:21;101487.72;;;19.01;68.59
45285;BME280;31026;43.780;25.948;2023-05-10T00:52:52;101484.94;;;19.02;68.75
45285;BME280;31026;43.780;25.948;2023-05-10T00:55:20;101485.16;;;18.99;68.57
45285;BME280;31026;43.780;25.948;2023-05-10T00:57:48;101487.72;;;19.01;68.57
45285;BME280;31026;43.780;25.948;2023-05-10T01:00:17;101492.97;;;19.02;68.43
45285;BME280;31026;43.780;25.948;2023-05-10T01:02:45;101479.06;;;18.97;68.45
45285;BME280;31026;43.780;25.948;2023-05-10T01:05:14;101486.25;;;18.97;68.57
45285;BME280;31026;43.780;25.948;2023-05-10T01:07:43;101470.38;;;18.94;68.50
45285;BME280;31026;43.780;25.948;2023-05-10T01:10:14;101473.22;;;18.92;68.64
45285;BME280;31026;43.780;25.948;2023-05-10T01:12:42;101486.34;;;18.95;68.70
45285;BME280;31026;43.780;25.948;2023-05-10T01:15:11;101486.00;;;19.00;68.57
45285;BME280;31026;43.780;25.948;2023-05-10T01:17:41;101491.97;;;19.03;68.38
45285;BME280;31026;43.780;25.948;2023-05-10T01:20:10;101476.28;;;19.10;68.11
45285;BME280;31026;43.780;25.948;2023-05-10T01:25:36;101495.19;;;19.20;67.70
45285;BME280;31026;43.780;25.948;2023-05-10T01:28:28;101486.66;;;19.15;67.85
45285;BME280;31026;43.780;25.948;2023-05-10T01:33:54;101466.06;;;19.15;67.91
45285;BME280;31026;43.780;25.948;2023-05-10T01:36:26;101480.56;;;19.13;67.80
45285;BME280;31026;43.780;25.948;2023-05-10T01:38:57;101474.72;;;19.19;67.88
45285;BME280;31026;43.780;25.948;2023-05-10T01:41:28;101479.81;;;19.11;68.03
45285;BME280;31026;43.780;25.948;2023-05-10T01:44:00;101467.22;;;19.00;68.88
45285;BME280;31026;43.780;25.948;2023-05-10T01:46:33;101473.50;;;19.45;67.41
45285;BME280;31026;43.780;25.948;2023-05-10T01:49:07;101470.13;;;20.00;65.93
45285;BME280;31026;43.780;25.948;2023-05-10T01:51:37;101464.81;;;20.53;64.50
45285;BME280;31026;43.780;25.948;2023-05-10T01:54:07;101474.81;;;20.51;64.70
45285;BME280;31026;43.780;25.948;2023-05-10T01:56:36;101465.56;;;20.55;64.67
45285;BME280;31026;43.780;25.948;2023-05-10T01:59:06;101473.84;;;20.63;64.44
45285;BME280;31026;43.780;25.948;2023-05-10T02:01:36;101462.59;;;20.70;64.17
45285;BME280;31026;43.780;25.948;2023-05-10T02:04:08;101468.19;;;20.66;64.50
45285;BME280;31026;43.780;25.948;2023-05-10T02:06:37;101462.38;;;20.61;64.56
45285;BME280;31026;43.780;25.948;2023-05-10T02:09:06;101488.72;;;20.68;64.69
45285;BME280;31026;43.780;25.948;2023-05-10T02:11:35;101472.59;;;20.68;64.67
45285;BME280;31026;43.780;25.948;2023-05-10T02:14:05;101479.94;;;20.65;64.40
45285;BME280;31026;43.780;25.948;2023-05-10T02:16:35;101478.31;;;20.74;64.54
45285;BME280;31026;43.780;25.948;2023-05-10T02:19:08;101477.72;;;20.71;64.51
45285;BME280;31026;43.780;25.948;2023-05-10T02:21:37;101474.38;;;20.78;64.46
45285;BME280;31026;43.780;25.948;2023-05-10T02:24:07;101488.94;;;20.76;64.46
45285;BME280;31026;43.780;25.948;2023-05-10T02:26:36;101467.31;;;20.77;64.32
45285;BME280;31026;43.780;25.948;2023-05-10T02:29:06;101467.22;;;20.89;64.20
45285;BME280;31026;43.780;25.948;2023-05-10T02:31:34;101463.81;;;20.86;64.33
45285;BME280;31026;43.780;25.948;2023-05-10T02:34:04;101471.75;;;20.88;64.34
45285;BME280;31026;43.780;25.948;2023-05-10T02:36:35;101461.84;;;20.89;64.12
45285;BME280;31026;43.780;25.948;2023-05-10T02:39:04;101468.53;;;20.94;63.98
45285;BME280;31026;43.780;25.948;2023-05-10T02:41:37;101451.69;;;20.92;64.13
45285;BME280;31026;43.780;25.948;2023-05-10T02:44:08;101465.84;;;20.94;63.96
45285;BME280;31026;43.780;25.948;2023-05-10T02:46:37;101460.22;;;20.97;64.07
45285;BME280;31026;43.780;25.948;2023-05-10T02:49:05;101469.22;;;21.08;63.91
45285;BME280;31026;43.780;25.948;2023-05-10T02:51:37;101464.16;;;20.93;64.27
45285;BME280;31026;43.780;25.948;2023-05-10T02:54:09;101465.25;;;20.91;64.50
45285;BME280;31026;43.780;25.948;2023-05-10T02:56:40;101472.22;;;20.93;64.57
45285;BME280;31026;43.780;25.948;2023-05-10T02:59:10;101480.03;;;20.96;64.50
45285;BME280;31026;43.780;25.948;2023-05-10T03:01:39;101471.72;;;20.99;64.56
45285;BME280;31026;43.780;25.948;2023-05-10T03:04:07;101487.72;;;21.01;64.13
45285;BME280;31026;43.780;25.948;2023-05-10T03:06:38;101467.88;;;21.02;64.32
45285;BME280;31026;43.780;25.948;2023-05-10T03:09:06;101472.16;;;21.04;64.27
45285;BME280;31026;43.780;25.948;2023-05-10T03:11:42;101480.94;;;21.06;64.12
45285;BME280;31026;43.780;25.948;2023-05-10T03:14:18;101470.19;;;21.06;64.17
45285;BME280;31026;43.780;25.948;2023-05-10T03:16:52;101484.50;;;21.07;63.99
45285;BME280;31026;43.780;25.948;2023-05-10T03:19:24;101466.22;;;21.11;63.97
45285;BME280;31026;43.780;25.948;2023-05-10T03:21:58;101478.97;;;21.09;64.11
45285;BME280;31026;43.780;25.948;2023-05-10T03:24:27;101477.41;;;21.06;64.22
45285;BME280;31026;43.780;25.948;2023-05-10T03:26:56;101482.53;;;21.09;63.99
45285;BME280;31026;43.780;25.948;2023-05-10T03:29:27;101480.56;;;21.11;63.87
45285;BME280;31026;43.780;25.948;2023-05-10T03:31:57;101484.09;;;21.12;64.06
45285;BME280;31026;43.780;25.948;2023-05-10T03:34:26;101490.19;;;21.14;64.01
45285;BME280;31026;43.780;25.948;2023-05-10T03:36:57;101480.16;;;21.16;63.90
45285;BME280;31026;43.780;25.948;2023-05-10T03:39:25;101487.50;;;21.14;64.04
45285;BME280;31026;43.780;25.948;2023-05-10T03:41:53;101483.56;;;21.18;63.91
45285;BME280;31026;43.780;25.948;2023-05-10T03:44:22;101474.97;;;21.24;63.48
45285;BME280;31026;43.780;25.948;2023-05-10T03:46:50;101465.19;;;21.23;63.69
45285;BME280;31026;43.780;25.948;2023-05-10T03:49:18;101484.47;;;21.28;63.58
45285;BME280;31026;43.780;25.948;2023-05-10T03:51:47;101468.59;;;21.25;63.64
45285;BME280;31026;43.780;25.948;2023-05-10T03:54:18;101477.13;;;21.30;63.56
45285;BME280;31026;43.780;25.948;2023-05-10T03:56:46;101483.69;;;21.37;63.22
45285;BME280;31026;43.780;25.948;2023-05-10T03:59:15;101473.16;;;21.34;63.45
45285;BME280;31026;43.780;25.948;2023-05-10T04:01:43;101480.09;;;21.06;63.90
45285;BME280;31026;43.780;25.948;2023-05-10T04:04:11;101483.50;;;20.87;64.74
45285;BME280;31026;43.780;25.948;2023-05-10T04:06:40;101488.09;;;20.75;64.96
45285;BME280;31026;43.780;25.948;2023-05-10T04:09:08;101497.25;;;20.73;64.82
45285;BME280;31026;43.780;25.948;2023-05-10T04:11:39;101487.06;;;20.55;65.31
45285;BME280;31026;43.780;25.948;2023-05-10T04:14:07;101470.56;;;20.49;65.50
45285;BME280;31026;43.780;25.948;2023-05-10T04:16:35;101493.09;;;20.36;65.97
45285;BME280;31026;43.780;25.948;2023-05-10T04:19:04;101488.81;;;20.34;65.82
45285;BME280;31026;43.780;25.948;2023-05-10T04:21:32;101499.69;;;20.32;65.92
45285;BME280;31026;43.780;25.948;2023-05-10T04:24:00;101484.31;;;20.34;65.55
45285;BME280;31026;43.780;25.948;2023-05-10T04:26:29;101507.88;;;20.31;65.54
45285;BME280;31026;43.780;25.948;2023-05-10T04:29:00;101489.44;;;20.37;65.75
45285;BME280;31026;43.780;25.948;2023-05-10T04:31:28;101497.91;;;20.10;66.11
45285;BME280;31026;43.780;25.948;2023-05-10T04:33:56;101508.66;;;20.10;66.48
45285;BME280;31026;43.780;25.948;2023-05-10T04:36:25;101506.69;;;20.12;66.57
45285;BME280;31026;43.780;25.948;2023-05-10T04:38:54;101496.91;;;20.22;66.12
45285;BME280;31026;43.780;25.948;2023-05-10T04:41:22;101489.34;;;20.27;66.16
45285;BME280;31026;43.780;25.948;2023-05-10T04:43:50;101500.53;;;20.33;65.94
45285;BME280;31026;43.780;25.948;2023-05-10T04:46:21;101493.47;;;20.32;66.05
45285;BME280;31026;43.780;25.948;2023-05-10T04:48:49;101495.16;;;20.33;65.91
45285;BME280;31026;43.780;25.948;2023-05-10T04:51:18;101502.03;;;20.25;66.16
45285;BME280;31026;43.780;25.948;2023-05-10T04:53:46;101509.84;;;20.17;66.42
45285;BME280;31026;43.780;25.948;2023-05-10T04:56:15;101492.28;;;20.13;66.52
45285;BME280;31026;43.780;25.948;2023-05-10T04:58:43;101506.44;;;20.15;66.53
45285;BME280;31026;43.780;25.948;2023-05-10T05:01:11;101516.81;;;19.97;67.03
45285;BME280;31026;43.780;25.948;2023-05-10T05:03:42;101508.69;;;19.88;67.25
45285;BME280;31026;43.780;25.948;2023-05-10T05:06:11;101502.56;;;19.97;66.83
45285;BME280;31026;43.780;25.948;2023-05-10T05:08:39;101502.81;;;19.94;66.90
45285;BME280;31026;43.780;25.948;2023-05-10T05:11:07;101511.38;;;19.76;63.99
45285;BME280;31026;43.780;25.948;2023-05-10T05:13:35;101512.41;;;19.51;64.48
45285;BME280;31026;43.780;25.948;2023-05-10T05:16:04;101511.81;;;19.59;60.55
45285;BME280;31026;43.780;25.948;2023-05-10T05:18:33;101502.66;;;19.61;59.80
45285;BME280;31026;43.780;25.948;2023-05-10T05:21:12;101505.44;;;19.37;63.35
45285;BME280;31026;43.780;25.948;2023-05-10T05:23:41;101515.69;;;19.32;60.81
45285;BME280;31026;43.780;25.948;2023-05-10T05:26:09;101516.66;;;19.31;59.62
45285;BME280;31026;43.780;25.948;2023-05-10T05:28:37;101510.09;;;19.35;58.57
45285;BME280;31026;43.780;25.948;2023-05-10T05:31:06;101501.31;;;19.44;57.54
45285;BME280;31026;43.780;25.948;2023-05-10T05:33:35;101500.59;;;19.42;57.85
45285;BME280;31026;43.780;25.948;2023-05-10T05:36:06;101510.81;;;19.37;60.49
45285;BME280;31026;43.780;25.948;2023-05-10T05:38:34;101509.38;;;19.44;56.34
45285;BME280;31026;43.780;25.948;2023-05-10T05:41:03;101495.47;;;19.51;55.83
45285;BME280;31026;43.780;25.948;2023-05-10T05:43:31;101501.06;;;19.36;58.62
45285;BME280;31026;43.780;25.948;2023-05-10T05:45:59;101511.69;;;19.38;57.15
45285;BME280;31026;43.780;25.948;2023-05-10T05:48:29;101508.25;;;19.47;56.01
45285;BME280;31026;43.780;25.948;2023-05-10T05:50:57;101507.69;;;19.66;53.83
45285;BME280;31026;43.780;25.948;2023-05-10T05:53:28;101514.84;;;19.43;56.75
45285;BME280;31026;43.780;25.948;2023-05-10T05:55:57;101510.25;;;18.98;55.43
45285;BME280;31026;43.780;25.948;2023-05-10T05:58:25;101492.19;;;18.65;53.97
45285;BME280;31026;43.780;25.948;2023-05-10T06:00:54;101499.03;;;18.69;53.60
45285;BME280;31026;43.780;25.948;2023-05-10T06:03:22;101500.81;;;18.81;53.63
45285;BME280;31026;43.780;25.948;2023-05-10T06:05:50;101503.81;;;18.77;54.02
45285;BME280;31026;43.780;25.948;2023-05-10T06:08:19;101490.19;;;18.80;55.25
45285;BME280;31026;43.780;25.948;2023-05-10T06:10:50;101536.84;;;19.13;55.42
45285;BME280;31026;43.780;25.948;2023-05-10T06:13:18;101506.31;;;19.38;56.11
45285;BME280;31026;43.780;25.948;2023-05-10T06:15:46;101508.38;;;19.34;56.85
45285;BME280;31026;43.780;25.948;2023-05-10T06:18:14;101492.06;;;19.48;56.32
45285;BME280;31026;43.780;25.948;2023-05-10T06:20:43;101495.59;;;19.38;56.60
45285;BME280;31026;43.780;25.948;2023-05-10T06:23:11;101490.13;;;19.62;56.45
45285;BME280;31026;43.780;25.948;2023-05-10T06:25:39;101485.25;;;19.56;56.63
45285;BME280;31026;43.780;25.948;2023-05-10T06:28:10;101485.50;;;19.64;56.80
45285;BME280;31026;43.780;25.948;2023-05-10T06:30:38;101498.91;;;19.75;56.48
45285;BME280;31026;43.780;25.948;2023-05-10T06:33:07;101492.69;;;19.86;56.69
45285;BME280;31026;43.780;25.948;2023-05-10T06:35:35;101494.50;;;19.63;56.94
45285;BME280;31026;43.780;25.948;2023-05-10T06:38:04;101504.75;;;19.46;56.50
45285;BME280;31026;43.780;25.948;2023-05-10T06:40:32;101493.28;;;19.56;57.57
45285;BME280;31026;43.780;25.948;2023-05-10T06:43:01;101487.19;;;19.65;56.76
45285;BME280;31026;43.780;25.948;2023-05-10T06:45:32;101493.94;;;19.82;55.99
45285;BME280;31026;43.780;25.948;2023-05-10T06:48:00;101499.28;;;19.82;56.05
45285;BME280;31026;43.780;25.948;2023-05-10T06:50:28;101501.31;;;19.67;56.13
45285;BME280;31026;43.780;25.948;2023-05-10T06:52:57;101507.47;;;19.80;54.82
45285;BME280;31026;43.780;25.948;2023-05-10T06:55:25;101510.03;;;19.82;55.47
45285;BME280;31026;43.780;25.948;2023-05-10T06:57:54;101497.44;;;19.71;60.00
45285;BME280;31026;43.780;25.948;2023-05-10T07:00:22;101495.38;;;19.86;58.99
45285;BME280;31026;43.780;25.948;2023-05-10T07:02:53;101487.34;;;19.75;58.53
45285;BME280;31026;43.780;25.948;2023-05-10T07:05:22;101493.53;;;19.64;58.41
45285;BME280;31026;43.780;25.948;2023-05-10T07:07:52;101480.00;;;19.77;58.52
45285;BME280;31026;43.780;25.948;2023-05-10T07:10:21;101490.03;;;19.86;57.52
45285;BME280;31026;43.780;25.948;2023-05-10T07:12:49;101485.25;;;19.90;56.44
45285;BME280;31026;43.780;25.948;2023-05-10T07:15:17;101516.09;;;19.95;56.91
45285;BME280;31026;43.780;25.948;2023-05-10T07:17:46;101495.28;;;19.88;58.52
45285;BME280;31026;43.780;25.948;2023-05-10T07:20:17;101499.28;;;19.82;57.27
45285;BME280;31026;43.780;25.948;2023-05-10T07:22:45;101486.22;;;19.77;57.59
45285;BME280;31026;43.780;25.948;2023-05-10T07:25:13;101500.13;;;19.82;58.36
45285;BME280;31026;43.780;25.948;2023-05-10T07:27:42;101494.03;;;19.92;57.46
45285;BME280;31026;43.780;25.948;2023-05-10T07:30:10;101493.44;;;19.88;58.33
45285;BME280;31026;43.780;25.948;2023-05-10T07:32:39;101488.69;;;19.80;58.91
45285;BME280;31026;43.780;25.948;2023-05-10T07:35:08;101481.97;;;19.75;58.46
45285;BME280;31026;43.780;25.948;2023-05-10T07:37:39;101492.59;;;19.76;58.71
45285;BME280;31026;43.780;25.948;2023-05-10T07:40:08;101481.34;;;19.71;58.79
45285;BME280;31026;43.780;25.948;2023-05-10T07:42:36;101487.66;;;19.59;59.27
45285;BME280;31026;43.780;25.948;2023-05-10T07:45:05;101475.97;;;19.71;58.50
45285;BME280;31026;43.780;25.948;2023-05-10T07:47:33;101480.13;;;19.64;58.38
45285;BME280;31026;43.780;25.948;2023-05-10T07:50:02;101487.66;;;19.59;58.61
45285;BME280;31026;43.780;25.948;2023-05-10T07:52:30;101490.09;;;19.51;58.24
45285;BME280;31026;43.780;25.948;2023-05-10T07:55:01;101492.53;;;19.65;58.51
45285;BME280;31026;43.780;25.948;2023-05-10T07:57:29;101488.75;;;19.67;57.58
45285;BME280;31026;43.780;25.948;2023-05-10T07:59:58;101491.34;;;19.80;57.03
45285;BME280;31026;43.780;25.948;2023-05-10T08:02:26;101495.69;;;19.47;57.63
45285;BME280;31026;43.780;25.948;2023-05-10T08:04:54;101484.97;;;19.59;57.17
45285;BME280;31026;43.780;25.948;2023-05-10T08:07:22;101486.34;;;19.87;57.22
45285;BME280;31026;43.780;25.948;2023-05-10T08:09:52;101483.31;;;19.92;57.46
45285;BME280;31026;43.780;25.948;2023-05-10T08:12:23;101501.47;;;19.77;55.79
45285;BME280;31026;43.780;25.948;2023-05-10T08:14:51;101488.16;;;19.53;57.16
45285;BME280;31026;43.780;25.948;2023-05-10T08:17:20;101499.84;;;19.52;57.23
45285;BME280;31026;43.780;25.948;2023-05-10T08:19:48;101483.66;;;19.64;56.54
45285;BME280;31026;43.780;25.948;2023-05-10T08:22:16;101487.19;;;19.65;56.16
45285;BME280;31026;43.780;25.948;2023-05-10T08:24:44;101483.16;;;19.71;56.23
45285;BME280;31026;43.780;25.948;2023-05-10T08:27:13;101475.50;;;19.77;56.53
45285;BME280;31026;43.780;25.948;2023-05-10T08:29:44;101487.34;;;19.75;56.58
45285;BME280;31026;43.780;25.948;2023-05-10T08:32:12;101501.81;;;19.61;57.77
45285;BME280;31026;43.780;25.948;2023-05-10T08:34:40;101498.66;;;19.67;56.59
45285;BME280;31026;43.780;25.948;2023-05-10T08:37:09;101487.94;;;19.78;56.41
45285;BME280;31026;43.780;25.948;2023-05-10T08:39:38;101482.31;;;19.59;56.26
45285;BME280;31026;43.780;25.948;2023-05-10T08:42:06;101475.97;;;19.48;57.45
45285;BME280;31026;43.780;25.948;2023-05-10T08:44:36;101473.78;;;19.54;57.57
45285;BME280;31026;43.780;25.948;2023-05-10T08:47:07;101490.59;;;19.67;56.10
45285;BME280;31026;43.780;25.948;2023-05-10T08:49:36;101482.81;;;19.64;56.98
45285;BME280;31026;43.780;25.948;2023-05-10T08:52:05;101478.91;;;19.68;56.88
45285;BME280;31026;43.780;25.948;2023-05-10T08:54:33;101496.22;;;19.75;57.34
45285;BME280;31026;43.780;25.948;2023-05-10T08:57:02;101492.59;;;19.76;56.81
45285;BME280;31026;43.780;25.948;2023-05-10T08:59:30;101492.19;;;19.70;56.19
45285;BME280;31026;43.780;25.948;2023-05-10T09:01:59;101480.84;;;19.66;55.97
45285;BME280;31026;43.780;25.948;2023-05-10T09:04:30;101475.97;;;19.71;56.09
45285;BME280;31026;43.780;25.948;2023-05-10T09:06:58;101476.38;;;19.78;55.78
45285;BME280;31026;43.780;25.948;2023-05-10T09:09:27;101461.81;;;19.69;55.83
45285;BME280;31026;43.780;25.948;2023-05-10T09:11:55;101487.31;;;19.52;55.80
45285;BME280;31026;43.780;25.948;2023-05-10T09:14:23;101470.09;;;19.55;55.77
45285;BME280;31026;43.780;25.948;2023-05-10T09:16:52;101474.53;;;19.78;55.42
45285;BME280;31026;43.780;25.948;2023-05-10T09:19:21;101461.19;;;19.65;54.96
45285;BME280;31026;43.780;25.948;2023-05-10T09:21:52;101491.22;;;19.71;54.13
45285;BME280;31026;43.780;25.948;2023-05-10T09:24:21;101470.84;;;19.68;54.84
45285;BME280;31026;43.780;25.948;2023-05-10T09:26:52;101466.47;;;19.56;53.86
45285;BME280;31026;43.780;25.948;2023-05-10T09:29:21;101469.97;;;19.67;54.42
45285;BME280;31026;43.780;25.948;2023-05-10T09:31:50;101459.66;;;19.74;53.96
45285;BME280;31026;43.780;25.948;2023-05-10T09:34:20;101451.72;;;19.84;53.54
45285;BME280;31026;43.780;25.948;2023-05-10T09:36:53;101452.78;;;19.93;53.29
45285;BME280;31026;43.780;25.948;2023-05-10T09:39:25;101453.06;;;19.90;53.68
45285;BME280;31026;43.780;25.948;2023-05-10T09:41:58;101451.81;;;19.82;53.36
45285;BME280;31026;43.780;25.948;2023-05-10T09:44:26;101439.38;;;19.70;52.99
45285;BME280;31026;43.780;25.948;2023-05-10T09:46:55;101435.22;;;19.89;52.47
45285;BME280;31026;43.780;25.948;2023-05-10T09:49:23;101435.72;;;19.71;51.53
45285;BME280;31026;43.780;25.948;2023-05-10T09:52:04;101434.50;;;19.75;51.24
45285;BME280;31026;43.780;25.948;2023-05-10T09:54:33;101439.50;;;19.68;51.60
45285;BME280;31026;43.780;25.948;2023-05-10T09:57:02;101432.31;;;19.58;51.57
45285;BME280;31026;43.780;25.948;2023-05-10T09:59:32;101426.91;;;19.69;52.64
45285;BME280;31026;43.780;25.948;2023-05-10T10:02:00;101425.00;;;19.71;51.92
45285;BME280;31026;43.780;25.948;2023-05-10T10:04:29;101443.06;;;19.58;52.31
45285;BME280;31026;43.780;25.948;2023-05-10T10:06:58;101436.81;;;19.68;52.29
45285;BME280;31026;43.780;25.948;2023-05-10T10:09:29;101441.81;;;19.51;52.30
45285;BME280;31026;43.780;25.948;2023-05-10T10:11:58;101426.69;;;19.61;51.78
45285;BME280;31026;43.780;25.948;2023-05-10T10:14:27;101431.81;;;19.75;50.76
45285;BME280;31026;43.780;25.948;2023-05-10T10:16:55;101450.59;;;19.64;49.58
45285;BME280;31026;43.780;25.948;2023-05-10T10:19:23;101435.63;;;19.50;52.13
45285;BME280;31026;43.780;25.948;2023-05-10T10:21:52;101429.63;;;19.46;50.30
45285;BME280;31026;43.780;25.948;2023-05-10T10:24:20;101431.59;;;19.44;52.38
45285;BME280;31026;43.780;25.948;2023-05-10T10:26:51;101427.06;;;19.45;52.29
45285;BME280;31026;43.780;25.948;2023-05-10T10:29:21;101428.78;;;19.46;52.50
45285;BME280;31026;43.780;25.948;2023-05-10T10:31:53;101434.38;;;19.65;52.49
45285;BME280;31026;43.780;25.948;2023-05-10T10:34:25;101413.03;;;19.75;53.41
45285;BME280;31026;43.780;25.948;2023-05-10T10:36:55;101419.25;;;19.53;53.75
45285;BME280;31026;43.780;25.948;2023-05-10T10:39:24;101412.53;;;19.70;53.86
45285;BME280;31026;43.780;25.948;2023-05-10T10:41:56;101404.13;;;19.63;54.45
45285;BME280;31026;43.780;25.948;2023-05-10T10:44:25;101411.59;;;19.48;54.75
45285;BME280;31026;43.780;25.948;2023-05-10T10:49:48;101423.78;;;19.53;54.37
45285;BME280;31026;43.780;25.948;2023-05-10T10:52:23;101402.44;;;19.62;54.09
45285;BME280;31026;43.780;25.948;2023-05-10T10:54:56;101402.31;;;19.53;54.79
45285;BME280;31026;43.780;25.948;2023-05-10T10:57:28;101404.75;;;19.56;55.21
45285;BME280;31026;43.780;25.948;2023-05-10T11:02:45;101385.97;;;19.78;55.23
45285;BME280;31026;43.780;25.948;2023-05-10T11:05:23;101395.00;;;19.55;55.78
45285;BME280;31026;43.780;25.948;2023-05-10T11:07:52;101395.72;;;19.57;56.07
45285;BME280;31026;43.780;25.948;2023-05-10T11:10:20;101376.44;;;19.63;55.64
45285;BME280;31026;43.780;25.948;2023-05-10T11:12:55;101386.81;;;19.56;55.42
45285;BME280;31026;43.780;25.948;2023-05-10T11:15:30;101382.06;;;19.60;55.09
45285;BME280;31026;43.780;25.948;2023-05-10T11:17:59;101366.19;;;19.68;55.13
45285;BME280;31026;43.780;25.948;2023-05-10T11:20:27;101369.16;;;19.42;55.55
45285;BME280;31026;43.780;25.948;2023-05-10T11:23:10;101377.94;;;19.33;55.65
45285;BME280;31026;43.780;25.948;2023-05-10T11:25:41;101383.53;;;19.41;55.68
45285;BME280;31026;43.780;25.948;2023-05-10T11:28:12;101383.56;;;19.30;56.03
45285;BME280;31026;43.780;25.948;2023-05-10T11:30:42;101383.06;;;19.25;56.49
45285;BME280;31026;43.780;25.948;2023-05-10T11:33:15;101380.28;;;19.26;56.08
45285;BME280;31026;43.780;25.948;2023-05-10T11:35:44;101379.53;;;19.24;55.98
45285;BME280;31026;43.780;25.948;2023-05-10T11:38:13;101369.16;;;19.20;55.97
45285;BME280;31026;43.780;25.948;2023-05-10T11:40:41;101353.19;;;19.52;55.16
45285;BME280;31026;43.780;25.948;2023-05-10T11:43:12;101367.66;;;19.61;55.20
45285;BME280;31026;43.780;25.948;2023-05-10T11:45:41;101364.25;;;19.59;54.32
45285;BME280;31026;43.780;25.948;2023-05-10T11:48:09;101369.88;;;19.56;54.30
45285;BME280;31026;43.780;25.948;2023-05-10T11:50:37;101365.47;;;19.66;54.09
45285;BME280;31026;43.780;25.948;2023-05-10T11:53:06;101358.56;;;19.52;54.63
45285;BME280;31026;43.780;25.948;2023-05-10T11:55:34;101364.53;;;19.44;55.26
45285;BME280;31026;43.780;25.948;2023-05-10T11:58:02;101343.06;;;19.56;55.00
45285;BME280;31026;43.780;25.948;2023-05-10T12:00:33;101339.16;;;19.60;54.78
45285;BME280;31026;43.780;25.948;2023-05-10T12:03:01;101352.28;;;19.63;54.80
45285;BME280;31026;43.780;25.948;2023-05-10T12:05:31;101343.25;;;19.86;53.54
45285;BME280;31026;43.780;25.948;2023-05-10T12:08:12;101347.56;;;19.78;54.33
45285;BME280;31026;43.780;25.948;2023-05-10T12:10:41;101338.00;;;19.85;52.28
45285;BME280;31026;43.780;25.948;2023-05-10T12:13:12;101343.53;;;19.72;53.39
45285;BME280;31026;43.780;25.948;2023-05-10T12:15:44;101330.53;;;19.89;53.78
45285;BME280;31026;43.780;25.948;2023-05-10T12:18:12;101341.88;;;19.92;53.29
45285;BME280;31026;43.780;25.948;2023-05-10T12:20:41;101344.50;;;19.60;54.71
45285;BME280;31026;43.780;25.948;2023-05-10T12:23:09;101327.91;;;19.66;54.45
45285;BME280;31026;43.780;25.948;2023-05-10T12:25:37;101328.16;;;19.52;54.75
45285;BME280;31026;43.780;25.948;2023-05-10T12:28:08;101318.47;;;19.83;53.95
45285;BME280;31026;43.780;25.948;2023-05-10T12:30:36;101328.88;;;19.65;54.28
45285;BME280;31026;43.780;25.948;2023-05-10T12:33:09;101310.47;;;19.60;54.88
45285;BME280;31026;43.780;25.948;2023-05-10T12:35:44;101319.13;;;19.64;52.55
45285;BME280;31026;43.780;25.948;2023-05-10T12:38:26;101324.03;;;19.47;54.71
45285;BME280;31026;43.780;25.948;2023-05-10T12:40:55;101327.81;;;19.45;56.03
45285;BME280;31026;43.780;25.948;2023-05-10T12:43:24;101324.00;;;19.59;55.49
45285;BME280;31026;43.780;25.948;2023-05-10T12:45:52;101311.53;;;19.69;55.54
45285;BME280;31026;43.780;25.948;2023-05-10T12:48:23;101319.59;;;19.69;55.81
45285;BME280;31026;43.780;25.948;2023-05-10T12:50:53;101320.47;;;19.70;56.05
45285;BME280;31026;43.780;25.948;2023-05-10T12:53:22;101309.38;;;19.74;56.27
45285;BME280;31026;43.780;25.948;2023-05-10T12:55:50;101293.97;;;19.88;55.82
45285;BME280;31026;43.780;25.948;2023-05-10T12:58:18;101291.13;;;19.89;56.02
45285;BME280;31026;43.780;25.948;2023-05-10T13:00:47;101301.03;;;19.89;56.00
45285;BME280;31026;43.780;25.948;2023-05-10T13:03:16;101286.66;;;19.78;56.83